createdAt,value
2019-01-20T00:00:08.887Z,86.21
2019-01-20T00:02:40.948Z,86.11
2019-01-20T00:05:12.814Z,85.87
2019-01-20T00:07:43.352Z,85.87
2019-01-20T00:10:13.727Z,85.86
2019-01-20T00:12:44.139Z,85.78
2019-01-20T00:15:15.392Z,85.76
2019-01-20T00:17:45.535Z,86.00
2019-01-20T00:20:15.801Z,86.03
2019-01-20T00:22:47.076Z,86.05
2019-01-20T00:25:17.262Z,86.07
2019-01-20T00:27:47.750Z,86.23
2019-01-20T00:30:21.238Z,86.29
2019-01-20T00:32:51.530Z,86.15
2019-01-20T00:35:21.720Z,85.89
2019-01-20T00:37:56.353Z,86.04
2019-01-20T00:40:28.364Z,86.13
2019-01-20T00:42:58.988Z,86.08
2019-01-20T00:45:29.338Z,85.73
2019-01-20T00:47:59.527Z,85.74
2019-01-20T00:50:29.851Z,85.66
2019-01-20T00:53:00.010Z,85.55
2019-01-20T00:55:31.689Z,85.79
2019-01-20T00:58:02.572Z,85.92
2019-01-20T01:00:33.644Z,85.91
2019-01-20T01:03:03.928Z,85.96
2019-01-20T01:05:34.152Z,86.00
2019-01-20T01:08:04.849Z,86.20
2019-01-20T01:10:35.307Z,86.31
2019-01-20T01:13:05.494Z,86.14
2019-01-20T01:15:35.708Z,85.80
2019-01-20T01:18:08.408Z,85.81
2019-01-20T01:20:39.762Z,85.79
2019-01-20T01:23:10.313Z,86.26
2019-01-20T01:25:40.598Z,86.59
2019-01-20T01:28:13.607Z,86.54
2019-01-20T01:30:43.857Z,86.37
2019-01-20T01:33:14.086Z,86.23
2019-01-20T01:35:44.782Z,86.22
2019-01-20T01:38:18.198Z,86.12
2019-01-20T01:40:50.155Z,85.94
2019-01-20T01:43:23.593Z,85.70
2019-01-20T01:45:54.147Z,85.63
2019-01-20T01:48:25.706Z,85.61
2019-01-20T01:50:59.106Z,85.69
2019-01-20T01:53:29.292Z,85.49
2019-01-20T01:56:02.103Z,85.64
2019-01-20T01:58:35.138Z,85.72
2019-01-20T02:01:06.248Z,85.75
2019-01-20T02:03:36.761Z,85.32
2019-01-20T02:06:08.687Z,85.23
2019-01-20T02:08:39.014Z,85.53
2019-01-20T02:11:11.780Z,85.60
2019-01-20T02:13:42.122Z,85.76
2019-01-20T02:16:12.508Z,85.83
2019-01-20T02:18:42.667Z,85.70
2019-01-20T02:21:12.821Z,85.76
2019-01-20T02:23:43.149Z,85.85
2019-01-20T02:26:13.432Z,85.91
2019-01-20T02:28:43.706Z,85.78
2019-01-20T02:31:13.901Z,85.81
2019-01-20T02:33:44.059Z,85.85
2019-01-20T02:36:14.669Z,85.73
2019-01-20T02:38:45.050Z,85.75
2019-01-20T02:41:15.486Z,85.91
2019-01-20T02:43:45.688Z,85.96
2019-01-20T02:46:15.862Z,86.04
2019-01-20T02:48:46.009Z,86.35
2019-01-20T02:51:16.340Z,86.37
2019-01-20T02:53:49.033Z,86.24
2019-01-20T02:56:19.368Z,86.02
2019-01-20T02:58:49.766Z,85.76
2019-01-20T03:01:20.055Z,85.84
2019-01-20T03:03:51.153Z,85.89
2019-01-20T03:06:21.492Z,85.81
2019-01-20T03:08:51.609Z,85.67
2019-01-20T03:11:21.933Z,85.48
2019-01-20T03:13:52.112Z,85.41
2019-01-20T03:16:22.398Z,85.38
2019-01-20T03:18:54.549Z,85.32
2019-01-20T03:21:25.052Z,85.42
2019-01-20T03:23:56.775Z,85.76
2019-01-20T03:26:28.970Z,86.00
2019-01-20T03:28:59.654Z,85.85
2019-01-20T03:31:29.963Z,85.72
2019-01-20T03:34:01.879Z,85.58
2019-01-20T03:36:32.343Z,85.64
2019-01-20T03:39:02.537Z,85.73
2019-01-20T03:41:34.084Z,85.73
2019-01-20T03:44:04.882Z,85.75
2019-01-20T03:46:35.078Z,85.83
2019-01-20T03:49:05.562Z,85.89
2019-01-20T03:51:35.841Z,86.15
2019-01-20T03:54:06.662Z,86.09
2019-01-20T03:56:37.110Z,86.11
2019-01-20T03:59:07.439Z,86.33
2019-01-20T04:01:37.627Z,86.66
2019-01-20T04:04:07.843Z,86.75
2019-01-20T04:06:38.091Z,86.80
2019-01-20T04:09:10.806Z,86.67
2019-01-20T04:11:41.075Z,86.39
2019-01-20T04:14:11.332Z,86.05
2019-01-20T04:16:41.602Z,86.20
2019-01-20T04:19:11.744Z,86.40
2019-01-20T04:21:41.885Z,86.50
2019-01-20T04:24:12.055Z,86.40
2019-01-20T04:26:42.454Z,86.51
2019-01-20T04:29:12.562Z,86.34
2019-01-20T04:31:42.737Z,86.28
2019-01-20T04:34:12.993Z,86.02
2019-01-20T04:36:43.139Z,85.85
2019-01-20T04:39:13.295Z,85.65
2019-01-20T04:41:43.543Z,85.57
2019-01-20T04:44:13.728Z,85.59
2019-01-20T04:46:43.899Z,85.56
2019-01-20T04:49:17.780Z,85.63
2019-01-20T04:51:48.009Z,85.60
2019-01-20T04:54:18.352Z,85.59
2019-01-20T04:56:48.640Z,85.52
2019-01-20T04:59:18.790Z,85.50
2019-01-20T05:01:48.993Z,85.63
2019-01-20T05:04:20.218Z,85.76
2019-01-20T05:06:50.369Z,86.01
2019-01-20T05:09:20.627Z,86.37
2019-01-20T05:11:50.743Z,86.52
2019-01-20T05:14:20.935Z,86.44
2019-01-20T05:16:51.104Z,86.55
2019-01-20T05:19:21.334Z,86.53
2019-01-20T05:21:51.497Z,86.66
2019-01-20T05:24:21.651Z,86.56
2019-01-20T05:26:51.857Z,86.41
2019-01-20T05:29:21.953Z,86.23
2019-01-20T05:31:52.163Z,85.79
2019-01-20T05:34:22.478Z,85.72
2019-01-20T05:36:52.780Z,85.54
2019-01-20T05:39:22.990Z,85.43
2019-01-20T05:41:53.144Z,85.37
2019-01-20T05:44:23.454Z,85.49
2019-01-20T05:46:53.709Z,85.67
2019-01-20T05:49:23.904Z,85.57
2019-01-20T05:51:54.050Z,85.49
2019-01-20T05:54:24.210Z,85.56
2019-01-20T05:56:54.391Z,85.51
2019-01-20T05:59:24.717Z,86.17
2019-01-20T06:01:54.864Z,86.70
2019-01-20T06:04:25.023Z,86.57
2019-01-20T06:06:55.363Z,86.27
2019-01-20T06:09:25.932Z,86.08
2019-01-20T06:11:56.273Z,85.90
2019-01-20T06:14:26.688Z,85.83
2019-01-20T06:16:57.049Z,85.86
2019-01-20T06:19:27.303Z,86.17
2019-01-20T06:21:57.507Z,86.56
2019-01-20T06:24:28.004Z,86.58
2019-01-20T06:26:58.467Z,86.51
2019-01-20T06:29:28.591Z,86.52
2019-01-20T06:31:58.883Z,86.49
2019-01-20T06:34:29.294Z,86.59
2019-01-20T06:36:59.443Z,87.12
2019-01-20T06:39:30.374Z,87.88
2019-01-20T06:42:03.992Z,88.06
2019-01-20T06:44:38.004Z,87.77
2019-01-20T06:47:08.223Z,87.74
2019-01-20T06:49:38.694Z,88.16
2019-01-20T06:52:09.372Z,87.99
2019-01-20T06:54:39.625Z,88.19
2019-01-20T06:57:09.883Z,89.24
2019-01-20T06:59:40.098Z,89.24
2019-01-20T07:02:10.324Z,88.92
2019-01-20T07:04:40.719Z,88.92
2019-01-20T07:07:11.424Z,88.87
2019-01-20T07:09:41.939Z,88.77
2019-01-20T07:12:12.622Z,88.51
2019-01-20T07:14:43.090Z,88.34
2019-01-20T07:17:13.597Z,88.62
2019-01-20T07:19:44.344Z,89.19
2019-01-20T07:22:14.879Z,89.49
2019-01-20T07:24:45.599Z,89.76
2019-01-20T07:27:16.095Z,89.67
2019-01-20T07:29:46.456Z,89.69
2019-01-20T07:32:16.877Z,89.53
2019-01-20T07:34:47.409Z,89.40
2019-01-20T07:37:17.688Z,89.35
2019-01-20T07:39:48.202Z,88.88
2019-01-20T07:42:19.024Z,88.75
2019-01-20T07:44:49.656Z,88.52
2019-01-20T07:47:19.972Z,88.48
2019-01-20T07:49:51.596Z,88.05
2019-01-20T07:52:22.092Z,87.41
2019-01-20T07:54:52.963Z,87.32
2019-01-20T07:57:23.352Z,86.91
2019-01-20T07:59:54.063Z,86.95
2019-01-20T08:02:24.717Z,87.01
2019-01-20T08:04:54.928Z,87.08
2019-01-20T08:07:25.187Z,87.22
2019-01-20T08:09:56.526Z,87.05
2019-01-20T08:12:26.739Z,87.11
2019-01-20T08:14:57.013Z,87.08
2019-01-20T08:17:27.706Z,87.10
2019-01-20T08:19:57.965Z,87.32
2019-01-20T08:22:28.213Z,86.96
2019-01-20T08:24:58.478Z,86.75
2019-01-20T08:27:28.837Z,86.43
2019-01-20T08:29:59.034Z,85.66
2019-01-20T08:32:29.648Z,85.67
2019-01-20T08:35:00.021Z,85.52
2019-01-20T08:37:30.406Z,85.24
2019-01-20T08:40:00.767Z,83.96
2019-01-20T08:42:31.297Z,83.53
2019-01-20T08:45:01.802Z,83.14
2019-01-20T08:47:55.358Z,83.16
2019-01-20T08:50:25.897Z,82.08
2019-01-20T08:52:56.075Z,81.62
2019-01-20T08:55:26.402Z,81.40
2019-01-20T08:57:56.615Z,80.73
2019-01-20T09:00:27.202Z,80.92
2019-01-20T09:02:57.663Z,80.67
2019-01-20T09:05:27.864Z,80.40
2019-01-20T09:07:58.142Z,80.49
2019-01-20T09:10:29.133Z,79.93
2019-01-20T09:13:02.756Z,79.68
2019-01-20T09:15:33.466Z,79.33
2019-01-20T09:18:03.875Z,77.95
2019-01-20T09:20:34.059Z,77.83
2019-01-20T09:23:04.742Z,77.76
2019-01-20T09:25:35.603Z,78.56
2019-01-20T09:28:06.130Z,78.72
2019-01-20T09:30:36.702Z,76.18
2019-01-20T09:33:07.551Z,75.93
2019-01-20T09:35:37.993Z,75.90
2019-01-20T09:38:08.348Z,73.77
2019-01-20T09:40:38.791Z,73.94
2019-01-20T09:43:09.037Z,73.74
2019-01-20T09:45:40.088Z,72.10
2019-01-20T09:48:10.685Z,72.66
2019-01-20T09:50:41.107Z,71.84
2019-01-20T09:53:11.468Z,70.36
2019-01-20T09:55:41.764Z,70.02
2019-01-20T09:58:12.054Z,68.76
2019-01-20T10:00:42.633Z,66.69
2019-01-20T10:03:16.273Z,65.72
2019-01-20T10:05:45.280Z,64.34
2019-01-20T10:08:15.669Z,64.16
2019-01-20T10:10:46.018Z,62.18
2019-01-20T10:13:16.707Z,61.65
2019-01-20T10:15:47.041Z,62.39
2019-01-20T10:18:17.534Z,61.96
2019-01-20T10:20:48.155Z,62.30
2019-01-20T10:23:18.641Z,61.80
2019-01-20T10:25:49.050Z,60.36
2019-01-20T10:28:22.531Z,60.27
2019-01-20T10:30:53.072Z,59.07
2019-01-20T10:33:23.405Z,57.52
2019-01-20T10:36:01.474Z,55.89
2019-01-20T10:38:31.785Z,55.59
2019-01-20T10:41:02.312Z,56.04
2019-01-20T10:43:32.809Z,56.89
2019-01-20T10:46:03.422Z,57.24
2019-01-20T10:48:34.090Z,56.96
2019-01-20T10:51:04.538Z,57.49
2019-01-20T10:53:35.613Z,56.87
2019-01-20T10:56:06.588Z,56.12
2019-01-20T10:58:37.018Z,55.13
2019-01-20T11:01:07.916Z,56.17
2019-01-20T11:03:38.380Z,56.38
2019-01-20T11:06:08.730Z,54.79
2019-01-20T11:08:38.983Z,54.41
2019-01-20T11:11:09.323Z,53.60
2019-01-20T11:13:40.031Z,53.34
2019-01-20T11:16:10.406Z,53.37
2019-01-20T11:18:40.829Z,52.99
2019-01-20T11:21:11.550Z,52.75
2019-01-20T11:23:43.927Z,53.21
2019-01-20T11:26:14.160Z,53.46
2019-01-20T11:28:44.416Z,58.55
2019-01-20T11:31:14.783Z,56.38
2019-01-20T11:33:45.285Z,58.81
2019-01-20T11:36:15.826Z,59.68
2019-01-20T11:38:46.122Z,59.00
2019-01-20T11:41:16.414Z,58.59
2019-01-20T11:43:46.671Z,57.41
2019-01-20T11:46:16.864Z,58.19
2019-01-20T11:48:47.447Z,57.61
2019-01-20T11:51:18.826Z,58.17
2019-01-20T11:53:49.129Z,57.06
2019-01-20T11:56:19.493Z,56.89
2019-01-20T11:58:49.825Z,57.92
2019-01-20T12:01:20.285Z,57.70
2019-01-20T12:03:51.214Z,56.63
2019-01-20T12:06:21.699Z,56.91
2019-01-20T12:08:53.385Z,56.47
2019-01-20T12:11:23.741Z,55.48
2019-01-20T12:13:54.405Z,55.76
2019-01-20T12:16:24.905Z,55.77
2019-01-20T12:18:55.308Z,56.70
2019-01-20T12:21:25.912Z,57.40
2019-01-20T12:23:56.277Z,56.47
2019-01-20T12:26:26.657Z,57.82
2019-01-20T12:28:57.116Z,56.69
2019-01-20T12:31:27.695Z,56.45
2019-01-20T12:33:58.027Z,56.04
2019-01-20T12:36:28.461Z,55.08
2019-01-20T12:38:58.819Z,54.13
2019-01-20T12:41:29.396Z,53.95
2019-01-20T12:43:59.850Z,54.07
2019-01-20T12:46:30.350Z,53.64
2019-01-20T12:49:00.697Z,53.68
2019-01-20T12:51:31.469Z,53.99
2019-01-20T12:54:01.719Z,55.97
2019-01-20T12:56:32.166Z,54.90
2019-01-20T12:59:03.487Z,55.72
2019-01-20T13:01:34.190Z,55.41
2019-01-20T13:04:04.508Z,55.28
2019-01-20T13:06:34.895Z,55.47
2019-01-20T13:09:08.096Z,55.84
2019-01-20T13:11:38.706Z,55.76
2019-01-20T13:14:09.414Z,56.66
2019-01-20T13:16:39.719Z,56.15
2019-01-20T13:19:10.403Z,56.70
2019-01-20T13:21:40.848Z,56.79
2019-01-20T13:24:11.125Z,57.31
2019-01-20T13:26:42.022Z,56.69
2019-01-20T13:29:12.427Z,57.75
2019-01-20T13:31:42.632Z,59.14
2019-01-20T13:34:12.848Z,59.72
2019-01-20T13:36:46.385Z,60.88
2019-01-20T13:39:17.052Z,59.87
2019-01-20T13:41:47.620Z,59.26
2019-01-20T13:44:19.541Z,59.25
2019-01-20T13:46:53.070Z,59.45
2019-01-20T13:49:23.480Z,59.62
2019-01-20T13:51:53.633Z,60.17
2019-01-20T13:54:25.047Z,60.63
2019-01-20T13:56:55.414Z,60.30
2019-01-20T13:59:25.699Z,60.16
2019-01-20T14:01:56.151Z,60.28
2019-01-20T14:04:26.671Z,60.37
2019-01-20T14:06:57.089Z,59.85
2019-01-20T14:09:27.394Z,60.18
2019-01-20T14:11:57.961Z,59.93
2019-01-20T14:14:28.574Z,60.31
2019-01-20T14:16:58.888Z,60.61
2019-01-20T14:19:29.073Z,61.46
2019-01-20T14:21:59.702Z,61.41
2019-01-20T14:24:30.139Z,61.74
2019-01-20T14:27:00.638Z,61.90
2019-01-20T14:29:30.886Z,61.88
2019-01-20T14:32:01.240Z,62.15
2019-01-20T14:34:31.884Z,62.96
2019-01-20T14:37:02.365Z,63.14
2019-01-20T14:39:33.098Z,63.10
2019-01-20T14:42:03.616Z,63.86
2019-01-20T14:44:33.986Z,63.82
2019-01-20T14:47:04.298Z,63.88
2019-01-20T14:49:35.026Z,64.24
2019-01-20T14:52:05.616Z,64.16
2019-01-20T14:54:36.214Z,64.52
2019-01-20T14:57:06.775Z,64.86
2019-01-20T14:59:37.247Z,64.81
2019-01-20T15:02:07.963Z,64.78
2019-01-20T15:04:38.210Z,65.18
2019-01-20T15:07:08.831Z,65.49
2019-01-20T15:09:39.368Z,65.39
2019-01-20T15:12:09.907Z,65.84
2019-01-20T15:14:40.221Z,65.91
2019-01-20T15:17:10.557Z,65.90
2019-01-20T15:19:40.816Z,65.90
2019-01-20T15:22:12.214Z,66.39
2019-01-20T15:24:42.741Z,66.39
2019-01-20T15:27:13.083Z,66.73
2019-01-20T15:29:43.537Z,66.85
2019-01-20T15:32:14.219Z,67.24
2019-01-20T15:34:44.807Z,67.51
2019-01-20T15:37:15.474Z,68.57
2019-01-20T15:39:46.210Z,69.15
2019-01-20T15:42:16.827Z,69.26
2019-01-20T15:44:47.287Z,69.41
2019-01-20T15:47:17.565Z,70.36
2019-01-20T15:49:49.359Z,70.70
2019-01-20T15:52:20.002Z,70.36
2019-01-20T15:54:50.287Z,70.17
2019-01-20T15:57:20.587Z,70.36
2019-01-20T15:59:51.072Z,70.39
2019-01-20T16:02:21.795Z,70.33
2019-01-20T16:04:52.838Z,70.29
2019-01-20T16:07:23.362Z,70.35
2019-01-20T16:09:53.907Z,70.07
2019-01-20T16:12:24.440Z,70.26
2019-01-20T16:14:55.295Z,71.37
2019-01-20T16:17:25.657Z,70.71
2019-01-20T16:19:56.114Z,70.81
2019-01-20T16:22:26.429Z,71.22
2019-01-20T16:24:56.737Z,71.46
2019-01-20T16:27:27.450Z,71.12
2019-01-20T16:29:58.322Z,71.37
2019-01-20T16:32:28.893Z,71.24
2019-01-20T16:34:59.071Z,71.43
2019-01-20T16:37:29.572Z,71.25
2019-01-20T16:40:00.495Z,71.40
2019-01-20T16:42:30.857Z,71.83
2019-01-20T16:45:01.636Z,71.86
2019-01-20T16:47:32.158Z,71.87
2019-01-20T16:50:02.920Z,71.89
2019-01-20T16:52:33.369Z,72.00
2019-01-20T16:55:04.390Z,72.12
2019-01-20T16:57:34.688Z,72.26
2019-01-20T17:00:06.258Z,72.38
2019-01-20T17:02:36.694Z,72.53
2019-01-20T17:05:10.901Z,72.74
2019-01-20T17:07:41.253Z,72.77
2019-01-20T17:10:14.888Z,73.29
2019-01-20T17:12:45.571Z,73.10
2019-01-20T17:15:18.920Z,72.99
2019-01-20T17:17:49.198Z,73.22
2019-01-20T17:20:19.907Z,73.57
2019-01-20T17:22:50.617Z,73.31
2019-01-20T17:25:20.979Z,73.14
2019-01-20T17:27:51.661Z,73.57
2019-01-20T17:30:24.423Z,73.91
2019-01-20T17:32:55.767Z,74.42
2019-01-20T17:35:26.321Z,74.32
2019-01-20T17:37:56.733Z,74.37
2019-01-20T17:40:27.941Z,74.66
2019-01-20T17:42:59.722Z,74.31
2019-01-20T17:45:33.064Z,74.58
2019-01-20T17:48:03.495Z,74.49
2019-01-20T17:50:36.830Z,74.59
2019-01-20T17:53:08.661Z,74.54
2019-01-20T17:55:39.221Z,74.83
2019-01-20T17:58:09.637Z,75.40
2019-01-20T18:00:52.974Z,75.79
2019-01-20T18:03:23.429Z,76.69
2019-01-20T18:05:54.275Z,76.25
2019-01-20T18:08:24.600Z,76.08
2019-01-20T18:10:55.108Z,75.84
2019-01-20T18:13:25.506Z,76.60
2019-01-20T18:15:56.109Z,76.42
2019-01-20T18:18:26.741Z,76.07
2019-01-20T18:20:57.146Z,76.15
2019-01-20T18:23:27.472Z,77.25
2019-01-20T18:25:57.973Z,77.16
2019-01-20T18:28:28.577Z,77.38
2019-01-20T18:30:59.093Z,76.94
2019-01-20T18:33:29.839Z,76.93
2019-01-20T18:36:00.386Z,76.98
2019-01-20T18:38:30.698Z,76.94
2019-01-20T18:41:01.341Z,77.20
2019-01-20T18:43:32.022Z,77.35
2019-01-20T18:46:02.572Z,77.11
2019-01-20T18:48:33.314Z,77.14
2019-01-20T18:51:03.762Z,77.12
2019-01-20T18:53:34.518Z,77.14
2019-01-20T18:56:05.595Z,77.41
2019-01-20T18:58:36.115Z,77.63
2019-01-20T19:01:08.756Z,77.49
2019-01-20T19:03:40.413Z,77.29
2019-01-20T19:06:11.000Z,77.25
2019-01-20T19:08:41.732Z,77.51
2019-01-20T19:11:12.087Z,77.63
2019-01-20T19:13:42.690Z,77.51
2019-01-20T19:16:13.696Z,77.51
2019-01-20T19:18:44.035Z,77.50
2019-01-20T19:21:14.571Z,77.55
2019-01-20T19:23:44.944Z,77.83
2019-01-20T19:26:15.507Z,77.68
2019-01-20T19:28:46.172Z,77.70
2019-01-20T19:31:16.920Z,77.56
2019-01-20T19:33:48.067Z,77.47
2019-01-20T19:36:19.046Z,77.62
2019-01-20T19:38:49.837Z,77.77
2019-01-20T19:41:20.166Z,77.86
2019-01-20T19:43:52.413Z,78.03
2019-01-20T19:46:23.021Z,78.00
2019-01-20T19:48:53.593Z,78.06
2019-01-20T19:51:23.929Z,78.16
2019-01-20T19:53:54.386Z,78.11
2019-01-20T19:56:24.782Z,78.35
2019-01-20T19:58:55.158Z,78.18
2019-01-20T20:01:30.749Z,78.02
2019-01-20T20:03:58.358Z,78.07
2019-01-20T20:06:28.889Z,78.14
2019-01-20T20:08:59.348Z,78.18
2019-01-20T20:11:30.167Z,78.08
2019-01-20T20:14:00.621Z,78.27
2019-01-20T20:16:31.556Z,78.22
2019-01-20T20:19:01.986Z,78.57
2019-01-20T20:21:32.625Z,78.47
2019-01-20T20:24:03.407Z,78.40
2019-01-20T20:26:34.188Z,78.30
2019-01-20T20:29:04.735Z,78.30
2019-01-20T20:31:35.322Z,78.75
2019-01-20T20:34:05.918Z,78.68
2019-01-20T20:36:36.515Z,78.72
2019-01-20T20:39:09.857Z,78.86
2019-01-20T20:41:41.451Z,79.00
2019-01-20T20:44:11.752Z,79.14
2019-01-20T20:46:42.804Z,78.91
2019-01-20T20:49:13.113Z,78.90
2019-01-20T20:51:44.049Z,78.72
2019-01-20T20:54:15.238Z,78.76
2019-01-20T20:56:46.020Z,78.81
2019-01-20T20:59:16.667Z,78.97
2019-01-20T21:01:46.974Z,78.96
2019-01-20T21:04:17.689Z,79.55
2019-01-20T21:06:48.375Z,79.43
2019-01-20T21:09:18.733Z,79.63
2019-01-20T21:11:49.599Z,79.78
2019-01-20T21:14:19.979Z,79.73
2019-01-20T21:16:50.343Z,79.65
2019-01-20T21:19:21.011Z,79.56
2019-01-20T21:21:51.595Z,80.15
2019-01-20T21:24:22.572Z,79.86
2019-01-20T21:26:52.875Z,79.74
2019-01-20T21:29:26.232Z,79.94
2019-01-20T21:31:56.938Z,80.68
2019-01-20T21:34:27.367Z,80.83
2019-01-20T21:36:57.775Z,80.73
2019-01-20T21:39:28.596Z,80.71
2019-01-20T21:41:58.892Z,80.45
2019-01-20T21:44:29.450Z,80.37
2019-01-20T21:47:00.022Z,80.34
2019-01-20T21:49:30.491Z,80.42
2019-01-20T21:52:01.158Z,80.83
2019-01-20T21:54:31.667Z,80.74
2019-01-20T21:57:02.023Z,80.63
2019-01-20T21:59:32.408Z,80.55
2019-01-20T22:02:03.538Z,80.50
2019-01-20T22:04:34.197Z,80.48
2019-01-20T22:07:04.575Z,80.35
2019-01-20T22:09:35.102Z,80.32
2019-01-20T22:12:06.341Z,80.18
2019-01-20T22:14:37.289Z,80.11
2019-01-20T22:17:07.525Z,80.16
2019-01-20T22:19:37.744Z,80.12
2019-01-20T22:22:08.023Z,80.04
2019-01-20T22:24:38.334Z,79.77
2019-01-20T22:27:08.971Z,79.68
2019-01-20T22:29:39.472Z,78.94
2019-01-20T22:32:09.827Z,78.11
2019-01-20T22:34:40.413Z,77.51
2019-01-20T22:37:10.992Z,77.83
2019-01-20T22:39:41.396Z,78.03
2019-01-20T22:42:11.741Z,77.99
2019-01-20T22:44:42.222Z,78.29
2019-01-20T22:47:12.677Z,78.06
2019-01-20T22:49:43.521Z,78.33
2019-01-20T22:52:13.904Z,78.17
2019-01-20T22:54:44.382Z,78.98
2019-01-20T22:57:14.762Z,78.90
2019-01-20T22:59:45.268Z,78.47
2019-01-20T23:02:15.933Z,78.27
2019-01-20T23:04:46.243Z,78.41
2019-01-20T23:07:16.585Z,78.38
2019-01-20T23:09:47.009Z,78.29
2019-01-20T23:12:17.603Z,78.48
2019-01-20T23:14:49.844Z,78.10
2019-01-20T23:17:20.116Z,78.71
2019-01-20T23:19:50.516Z,78.42
2019-01-20T23:22:20.743Z,78.37
2019-01-20T23:24:50.980Z,78.33
2019-01-20T23:27:21.686Z,78.01
2019-01-20T23:29:52.110Z,78.08
2019-01-20T23:32:22.694Z,78.02
2019-01-20T23:34:53.431Z,78.06
2019-01-20T23:37:23.683Z,77.98
2019-01-20T23:39:54.012Z,78.06
2019-01-20T23:42:24.213Z,78.06
2019-01-20T23:44:54.768Z,77.93
2019-01-20T23:47:25.083Z,77.70
2019-01-20T23:49:55.445Z,77.77
2019-01-20T23:52:25.697Z,77.61
2019-01-20T23:54:55.872Z,77.56
2019-01-20T23:57:26.754Z,77.93
2019-01-20T23:59:57.411Z,78.30
